Pagina principală
METAR-TAF:

METAR-TAF

Aeroporturi :

Poteau, Oklahoma, Statele Unite ale Americii

Latitudine: 35-01-18N, longitudine: 094-37-17W, elevație: 138 m

Observații meteo curente

Raportul a fost făcut în urmă cu 15 de minute, la 21:15 UTC
Vânt 8 kt de la Sud/Sud-vest
Temperatură 35°C
Umiditate 42%
Presiune 1015 hPa
Vizibilitate: 16.1 km
Nori împrăștiați la o înălțime de 5500 picior

METAR: KRKR 222115Z AUTO 21008KT 10SM SCT055 35/20 A2996 RMK AO2

Ora: 16:30 (21:30 UTC)


TAF: lipsă

Observații și prognoze meteo pentru peste 4.000 de aeroporturi (rapoarte METAR și TAF).

Stațiile disponibile sunt reprezentate pe hartă prin puncte galbene și roșii.

Țineți indicatorul mouse-ului pe punctul dorit pentru a vedea denumirea stației.

Apoi, faceți clic pentru a vedea observațiile și prognozele meteorologice.

Pentru a schimba harta: Pentru mărire, faceți clic pe butoanele verzi cu cruce neagră; pentru micșorare, pe butonul verde cu o liniuță; pentru hărți învecinate, pe săgețile verzi.


METAR-TAF: